Time;durP1;ratioP1;P1;durP2;ratioP2;P2;SDS_P1;SDS_P2;PMS_P1;PMS_P2;Temp;Humidity;BMP_temperature;BMP_pressure;BME280_temperature;BME280_humidity;BME280_pressure;Samples;Min_cycle;Max_cycle;Signal;HPM_P1;HPM_P2
2022/06/10 00:00:14;;;;;;;7.20;3.60;;;11.50;99.90;;;;;;5073930;28;20575;-69
2022/06/10 00:02:43;;;;;;;11.75;3.53;;;11.50;99.90;;;;;;5055794;28;20054;-70
2022/06/10 00:05:12;;;;;;;7.80;3.35;;;11.50;99.90;;;;;;5041373;28;20049;-70
2022/06/10 00:07:39;;;;;;;8.32;3.35;;;11.50;99.90;;;;;;5036151;28;20122;-70
2022/06/10 00:10:07;;;;;;;9.32;3.92;;;11.50;99.90;;;;;;5054373;28;20060;-70
2022/06/10 00:12:34;;;;;;;10.52;3.40;;;11.40;99.90;;;;;;5035499;28;20057;-70
2022/06/10 00:15:03;;;;;;;8.07;3.30;;;11.40;99.90;;;;;;5036181;28;20040;-70
2022/06/10 00:17:29;;;;;;;6.47;3.15;;;11.40;99.90;;;;;;5036357;28;20107;-69
2022/06/10 00:19:58;;;;;;;7.68;3.55;;;11.40;99.90;;;;;;5053514;28;20045;-70
2022/06/10 00:22:25;;;;;;;7.82;3.53;;;11.40;99.90;;;;;;5035755;28;20090;-69
2022/06/10 00:24:52;;;;;;;16.33;3.95;;;11.30;99.90;;;;;;5035850;28;20049;-70
2022/06/10 00:27:18;;;;;;;8.05;3.35;;;11.30;99.90;;;;;;5052611;28;20103;-69
2022/06/10 00:29:45;;;;;;;7.28;3.70;;;11.30;99.90;;;;;;5035373;28;20060;-70
2022/06/10 00:32:14;;;;;;;8.75;3.38;;;11.30;99.90;;;;;;5040859;28;20455;-68
2022/06/10 00:34:41;;;;;;;13.13;3.53;;;11.30;99.90;;;;;;5073278;28;20044;-69
2022/06/10 00:37:09;;;;;;;8.68;3.80;;;11.30;99.90;;;;;;5073716;28;20045;-71
2022/06/10 00:39:36;;;;;;;13.25;4.20;;;11.20;99.90;;;;;;5056001;28;20492;-69
2022/06/10 00:42:05;;;;;;;10.00;3.65;;;11.20;99.90;;;;;;5072821;28;20114;-69
2022/06/10 00:44:36;;;;;;;9.07;3.60;;;11.30;99.90;;;;;;5055423;28;20382;-69
2022/06/10 00:47:05;;;;;;;10.55;4.18;;;11.20;99.90;;;;;;5073268;28;20055;-69
2022/06/10 00:49:33;;;;;;;10.82;4.10;;;11.20;99.90;;;;;;5054984;28;20052;-69
2022/06/10 00:52:01;;;;;;;12.48;4.72;;;11.20;99.90;;;;;;5072786;28;20049;-68
2022/06/10 00:54:33;;;;;;;9.90;3.67;;;11.20;99.90;;;;;;5072652;28;20094;-69
2022/06/10 00:57:04;;;;;;;11.07;3.78;;;11.10;99.90;;;;;;5073137;28;20520;-68
2022/06/10 00:59:36;;;;;;;6.38;3.85;;;11.10;99.90;;;;;;5055548;28;20140;-69
2022/06/10 01:02:07;;;;;;;8.55;4.03;;;11.10;99.90;;;;;;5050754;28;20083;-68
2022/06/10 01:04:36;;;;;;;8.82;4.50;;;11.10;99.90;;;;;;5035297;28;20041;-69
2022/06/10 01:07:04;;;;;;;18.80;4.60;;;11.10;99.90;;;;;;5035543;28;20057;-69
2022/06/10 01:09:32;;;;;;;11.05;4.00;;;11.00;99.90;;;;;;5042906;28;20056;-69
2022/06/10 01:12:38;;;;;;;7.82;3.92;;;11.00;99.90;;;;;;5055050;28;20048;-70
2022/06/10 01:15:14;;;;;;;9.40;4.50;;;11.00;99.90;;;;;;5073060;28;20496;-70
2022/06/10 01:17:56;;;;;;;13.35;3.92;;;11.00;99.90;;;;;;5072579;28;20045;-70
2022/06/10 01:20:32;;;;;;;10.32;4.47;;;11.00;99.90;;;;;;5055646;28;20508;-69
2022/06/10 01:23:41;;;;;;;10.57;3.50;;;11.00;99.90;;;;;;5072482;28;20048;-69
2022/06/10 01:29:50;;;;;;;8.85;4.32;;;10.90;99.90;;;;;;5054096;28;20051;-71
2022/06/10 01:32:26;;;;;;;7.30;3.75;;;10.90;99.90;;;;;;5026226;28;20071;-69
2022/06/10 01:35:00;;;;;;;11.73;4.10;;;10.90;99.90;;;;;;5071153;28;20155;-69
2022/06/10 01:37:36;;;;;;;11.48;3.70;;;10.80;99.90;;;;;;5072470;28;20057;-71
2022/06/10 01:40:11;;;;;;;7.72;4.20;;;10.80;99.90;;;;;;5054709;28;20045;-70
2022/06/10 01:42:46;;;;;;;8.23;3.58;;;10.80;99.90;;;;;;5054614;28;20558;-71
2022/06/10 01:45:20;;;;;;;6.15;3.85;;;10.70;99.90;;;;;;5054210;28;20040;-69
2022/06/10 01:47:59;;;;;;;9.27;4.00;;;10.80;99.90;;;;;;5054886;28;20114;-69
2022/06/10 01:50:35;;;;;;;12.70;4.47;;;10.70;99.90;;;;;;5054607;28;20048;-69
2022/06/10 01:53:08;;;;;;;8.52;4.13;;;10.70;99.90;;;;;;5054276;28;20381;-69
2022/06/10 01:55:39;;;;;;;7.45;4.45;;;10.60;99.90;;;;;;5055185;28;20063;-69
2022/06/10 01:58:10;;;;;;;9.65;4.28;;;10.60;99.90;;;;;;5054334;28;20496;-69
2022/06/10 02:00:41;;;;;;;12.57;3.80;;;10.60;99.90;;;;;;5072681;28;20470;-69
2022/06/10 02:03:16;;;;;;;9.75;4.25;;;10.60;99.90;;;;;;5049999;28;20053;-68
2022/06/10 02:05:47;;;;;;;9.25;3.58;;;10.50;99.90;;;;;;5038140;28;20056;-68
2022/06/10 02:08:19;;;;;;;12.52;4.38;;;10.50;99.90;;;;;;5038487;28;20049;-69
2022/06/10 02:10:51;;;;;;;11.48;4.20;;;10.50;99.90;;;;;;5038962;28;20068;-69
2022/06/10 02:13:22;;;;;;;8.85;4.65;;;10.50;99.90;;;;;;5037879;28;20049;-68
2022/06/10 02:15:52;;;;;;;;;;;10.50;99.90;;;;;;5056857;28;20549;-69
2022/06/10 02:18:28;;;;;;;10.15;4.18;;;10.40;99.90;;;;;;5042729;28;20011;-69
2022/06/10 02:21:00;;;;;;;11.02;4.25;;;10.40;99.90;;;;;;5037725;28;20057;-68
2022/06/10 02:23:31;;;;;;;11.25;4.32;;;10.40;99.90;;;;;;5038141;28;20107;-70
2022/06/10 02:26:00;;;;;;;10.90;4.22;;;10.40;99.90;;;;;;5055780;28;20053;-69
2022/06/10 02:28:34;;;;;;;9.80;4.18;;;10.40;99.90;;;;;;5038310;28;20091;-68
2022/06/10 02:31:05;;;;;;;13.70;4.50;;;10.50;99.90;;;;;;5038958;28;20443;-70
2022/06/10 02:33:33;;;;;;;13.00;5.20;;;10.40;99.90;;;;;;5046083;28;20106;-68
2022/06/10 02:36:06;;;;;;;8.63;4.00;;;10.30;99.90;;;;;;5058248;28;20151;-69
2022/06/10 02:38:43;;;;;;;9.95;3.90;;;10.30;99.90;;;;;;5058436;28;20106;-68
2022/06/10 02:41:20;;;;;;;11.23;4.43;;;10.30;99.90;;;;;;5057638;28;20542;-70
2022/06/10 02:43:57;;;;;;;11.55;4.80;;;10.30;99.90;;;;;;5057578;28;20056;-69
2022/06/10 02:46:28;;;;;;;12.05;4.72;;;10.30;99.90;;;;;;5058320;28;20106;-70
2022/06/10 02:49:08;;;;;;;11.88;4.15;;;10.30;99.90;;;;;;5060462;28;20394;-68
2022/06/10 02:51:36;;;;;;;10.55;4.20;;;10.30;99.90;;;;;;5038077;28;20136;-69
2022/06/10 02:54:05;;;;;;;14.57;4.88;;;10.30;99.90;;;;;;5054793;28;20481;-69
2022/06/10 02:56:32;;;;;;;9.77;4.15;;;10.20;99.90;;;;;;5055435;28;20052;-70
2022/06/10 03:02:19;;;;;;;13.90;4.47;;;10.20;99.90;;;;;;5066230;28;20519;-70
2022/06/10 03:05:00;;;;;;;12.50;5.07;;;10.20;99.90;;;;;;5075305;28;20044;-70
2022/06/10 03:07:48;;;;;;;11.40;4.20;;;10.20;99.90;;;;;;5057618;28;20139;-69
2022/06/10 03:10:28;;;;;;;13.45;4.88;;;10.30;99.90;;;;;;5056835;28;20110;-69
2022/06/10 03:13:11;;;;;;;11.70;4.47;;;10.30;99.90;;;;;;5057474;28;20052;-69
2022/06/10 03:16:16;;;;;;;11.00;4.30;;;10.30;99.90;;;;;;5056525;28;20138;-70
2022/06/10 03:18:54;;;;;;;13.65;4.72;;;10.30;99.90;;;;;;5057585;28;20071;-69
2022/06/10 03:21:29;;;;;;;11.07;4.70;;;10.30;99.90;;;;;;5057299;28;20101;-69
2022/06/10 03:24:05;;;;;;;12.23;4.80;;;10.30;99.90;;;;;;5074597;28;20116;-69
2022/06/10 03:26:41;;;;;;;10.70;4.57;;;10.30;99.90;;;;;;5057431;28;20083;-68
2022/06/10 03:29:16;;;;;;;12.45;5.50;;;10.20;99.90;;;;;;5057012;28;20048;-69
2022/06/10 03:31:45;;;;;;;12.60;5.45;;;10.30;99.90;;;;;;5046818;28;20053;-69
2022/06/10 03:34:21;;;;;;;14.50;4.97;;;10.30;99.90;;;;;;5054765;28;20543;-68
2022/06/10 03:36:50;;;;;;;14.63;4.60;;;10.30;99.90;;;;;;5036869;28;20056;-69
2022/06/10 03:39:22;;;;;;;12.40;5.70;;;10.30;99.90;;;;;;5037020;28;20045;-69
2022/06/10 03:41:58;;;;;;;14.35;4.88;;;10.30;99.90;;;;;;5037122;28;20076;-68
2022/06/10 03:44:26;;;;;;;17.67;5.88;;;10.30;99.90;;;;;;5053845;28;20045;-69
2022/06/10 03:46:56;;;;;;;11.55;5.20;;;10.30;99.90;;;;;;5054741;28;20053;-69
2022/06/10 03:49:30;;;;;;;13.25;4.50;;;10.40;99.90;;;;;;5036990;28;20138;-69
2022/06/10 03:52:00;;;;;;;8.82;4.70;;;10.40;99.90;;;;;;5036448;28;20067;-68
2022/06/10 03:54:27;;;;;;;11.48;4.40;;;10.40;99.90;;;;;;5054251;28;20098;-69
2022/06/10 03:56:54;;;;;;;10.48;3.97;;;10.50;99.90;;;;;;5036971;28;20057;-69
2022/06/10 03:59:21;;;;;;;8.93;4.38;;;10.50;99.90;;;;;;5060116;28;20121;-69
2022/06/10 04:01:48;;;;;;;12.48;4.78;;;10.50;99.90;;;;;;5074234;28;20052;-68
2022/06/10 04:04:15;;;;;;;10.68;4.45;;;10.60;99.90;;;;;;5055784;28;20045;-69
2022/06/10 04:06:42;;;;;;;10.35;4.28;;;10.60;99.90;;;;;;5074189;28;20049;-70
2022/06/10 04:09:13;;;;;;;10.68;4.30;;;10.70;99.90;;;;;;5056575;28;20057;-70
2022/06/10 04:11:40;;;;;;;10.40;3.67;;;10.70;99.90;;;;;;5056046;28;20075;-69
2022/06/10 04:14:06;;;;;;;8.68;3.67;;;10.80;99.90;;;;;;5055857;28;20067;-69
2022/06/10 04:16:33;;;;;;;12.02;4.75;;;10.80;99.90;;;;;;5056401;28;20052;-69
2022/06/10 04:19:01;;;;;;;8.25;3.95;;;10.90;99.90;;;;;;5055693;28;20048;-70
2022/06/10 04:21:27;;;;;;;9.05;4.90;;;10.90;99.90;;;;;;5073547;28;20123;-70
2022/06/10 04:23:54;;;;;;;9.77;4.82;;;11.00;99.90;;;;;;5055427;28;20055;-69
2022/06/10 04:26:23;;;;;;;7.30;3.95;;;11.00;99.90;;;;;;5071113;28;20109;-70
2022/06/10 04:28:50;;;;;;;11.88;4.15;;;11.10;99.90;;;;;;5065729;28;20060;-69
2022/06/10 04:31:18;;;;;;;10.05;3.55;;;11.30;99.90;;;;;;5053250;28;20052;-70
2022/06/10 04:33:45;;;;;;;10.82;3.30;;;11.70;99.90;;;;;;5070594;28;20047;-70
2022/06/10 04:36:15;;;;;;;13.55;3.75;;;11.80;99.90;;;;;;5071824;28;20055;-69
2022/06/10 04:38:42;;;;;;;15.93;4.57;;;12.00;99.90;;;;;;5054169;28;20127;-69
2022/06/10 04:41:09;;;;;;;8.40;3.92;;;12.20;99.90;;;;;;5053332;28;20458;-69
2022/06/10 04:43:38;;;;;;;12.02;3.97;;;12.20;99.90;;;;;;5050485;28;20052;-69
2022/06/10 04:46:07;;;;;;;15.90;4.25;;;12.40;99.90;;;;;;5053373;28;20048;-70
2022/06/10 04:48:34;;;;;;;12.65;4.18;;;12.50;99.90;;;;;;5053585;28;20056;-69
2022/06/10 04:51:02;;;;;;;15.90;3.75;;;12.60;99.90;;;;;;5053211;28;20385;-70
2022/06/10 04:53:29;;;;;;;8.30;3.28;;;12.80;99.90;;;;;;5053125;28;20456;-70
2022/06/10 04:55:56;;;;;;;14.35;3.92;;;13.00;99.90;;;;;;5071330;28;20476;-69
2022/06/10 04:58:23;;;;;;;7.40;3.33;;;13.20;99.90;;;;;;5050092;28;20044;-70
2022/06/10 05:00:51;;;;;;;13.23;4.38;;;13.50;99.90;;;;;;5052901;28;20442;-70
2022/06/10 05:03:19;;;;;;;10.90;4.13;;;13.70;99.90;;;;;;5071192;28;20052;-70
2022/06/10 05:05:45;;;;;;;11.93;3.72;;;13.80;99.90;;;;;;5053215;28;20058;-69
2022/06/10 05:08:14;;;;;;;10.48;3.88;;;14.00;99.90;;;;;;5068617;28;20485;-70
2022/06/10 05:10:43;;;;;;;14.10;3.58;;;14.10;99.90;;;;;;5067230;28;20488;-70
2022/06/10 05:13:10;;;;;;;11.77;3.83;;;14.20;99.90;;;;;;5070918;28;20056;-69
2022/06/10 05:15:37;;;;;;;22.48;4.55;;;14.30;99.90;;;;;;5052522;28;20053;-70
2022/06/10 05:18:06;;;;;;;8.73;3.25;;;14.40;99.90;;;;;;5070455;28;20109;-71
2022/06/10 05:20:36;;;;;;;12.43;3.75;;;14.50;99.90;;;;;;5071023;28;20451;-70
2022/06/10 05:23:04;;;;;;;8.13;4.03;;;14.70;99.90;;;;;;5050370;28;20410;-69
2022/06/10 05:25:31;;;;;;;10.35;3.47;;;14.80;99.90;;;;;;5053289;28;20044;-70
2022/06/10 05:27:58;;;;;;;12.18;3.70;;;14.80;99.90;;;;;;5052472;28;20373;-69
2022/06/10 05:30:30;;;;;;;15.27;3.78;;;14.90;99.90;;;;;;5051847;28;20059;-69
2022/06/10 05:32:57;;;;;;;8.48;3.15;;;15.00;99.90;;;;;;5069971;28;20086;-69
2022/06/10 05:35:26;;;;;;;9.68;3.42;;;15.00;99.90;;;;;;5050767;28;20396;-70
2022/06/10 05:37:53;;;;;;;9.73;3.60;;;15.10;99.90;;;;;;5070863;28;20054;-70
2022/06/10 05:40:22;;;;;;;9.75;3.47;;;15.10;99.90;;;;;;5070551;28;20094;-70
2022/06/10 05:42:49;;;;;;;13.05;4.05;;;15.20;99.90;;;;;;5051419;28;20162;-68
2022/06/10 05:45:17;;;;;;;9.57;3.47;;;15.20;99.90;;;;;;5052537;28;20045;-68
2022/06/10 05:47:45;;;;;;;11.70;3.60;;;15.30;99.90;;;;;;5051686;28;20508;-70
2022/06/10 05:50:15;;;;;;;9.18;3.22;;;15.30;99.90;;;;;;5070405;28;20512;-71
2022/06/10 05:52:46;;;;;;;9.70;3.13;;;15.40;99.90;;;;;;5052152;28;20056;-69
2022/06/10 05:55:14;;;;;;;10.60;3.05;;;15.50;99.90;;;;;;5032486;28;20106;-69
2022/06/10 05:57:41;;;;;;;11.90;3.40;;;15.50;99.90;;;;;;5057876;28;20040;-71
2022/06/10 06:00:14;;;;;;;13.18;3.83;;;15.60;99.90;;;;;;5054419;28;20048;-69
2022/06/10 06:02:41;;;;;;;5.90;2.80;;;15.60;99.90;;;;;;5063603;28;20068;-70
2022/06/10 06:05:09;;;;;;;8.30;3.42;;;15.70;99.90;;;;;;5048650;28;20056;-70
2022/06/10 06:07:38;;;;;;;10.68;3.65;;;15.90;99.90;;;;;;5069602;28;20127;-71
2022/06/10 06:10:07;;;;;;;9.60;3.17;;;16.00;99.90;;;;;;5045951;28;20368;-70
2022/06/10 06:12:35;;;;;;;11.50;3.35;;;16.10;99.90;;;;;;5048392;28;20495;-71
2022/06/10 06:15:02;;;;;;;10.55;3.15;;;16.10;99.90;;;;;;5040208;28;20071;-70
2022/06/10 06:17:29;;;;;;;9.93;3.53;;;16.20;99.90;;;;;;5053688;28;20056;-71
2022/06/10 06:19:56;;;;;;;15.52;3.70;;;16.30;99.90;;;;;;5035055;28;20409;-70
2022/06/10 06:22:23;;;;;;;12.65;4.50;;;16.50;99.90;;;;;;5034155;28;20052;-69
2022/06/10 06:24:50;;;;;;;11.82;4.18;;;16.50;99.90;;;;;;5052125;28;20627;-70
2022/06/10 06:27:18;;;;;;;17.40;3.80;;;16.50;99.90;;;;;;5064628;28;20057;-71
2022/06/10 06:29:46;;;;;;;10.60;3.70;;;16.60;99.90;;;;;;5043893;28;20057;-71
2022/06/10 06:32:13;;;;;;;15.40;4.55;;;16.60;99.90;;;;;;5071350;28;20051;-70
2022/06/10 06:34:40;;;;;;;10.60;4.05;;;16.60;99.90;;;;;;5053688;28;20095;-71
2022/06/10 06:37:14;;;;;;;11.43;4.35;;;16.60;99.90;;;;;;5071378;28;20076;-71
2022/06/10 06:39:41;;;;;;;14.00;5.00;;;16.50;99.90;;;;;;5049845;28;20136;-71
2022/06/10 06:42:11;;;;;;;18.90;4.70;;;16.30;99.90;;;;;;5076049;28;20060;-71
2022/06/10 06:44:40;;;;;;;14.88;4.82;;;16.10;99.90;;;;;;5089125;28;20080;-71
2022/06/10 06:47:08;;;;;;;15.07;5.80;;;15.90;99.90;;;;;;5048750;28;20128;-70
2022/06/10 06:49:35;;;;;;;15.80;6.43;;;15.90;99.90;;;;;;5053159;28;20059;-71
2022/06/10 06:52:01;;;;;;;21.45;5.50;;;15.90;99.90;;;;;;5064550;28;20040;-71
2022/06/10 06:54:28;;;;;;;21.95;6.15;;;16.00;99.90;;;;;;5074995;28;20403;-71
2022/06/10 06:56:57;;;;;;;15.18;4.35;;;16.30;99.90;;;;;;5057502;28;20074;-71
2022/06/10 06:59:24;;;;;;;11.10;4.55;;;16.40;99.90;;;;;;5056624;28;20423;-71
2022/06/10 07:01:52;;;;;;;14.27;4.80;;;16.50;99.90;;;;;;5074041;28;20060;-71
2022/06/10 07:04:19;;;;;;;11.48;4.57;;;16.50;99.90;;;;;;5068627;28;20048;-72
2022/06/10 07:06:48;;;;;;;11.35;3.70;;;16.70;99.90;;;;;;5075571;28;20055;-71
2022/06/10 07:09:15;;;;;;;9.60;4.00;;;17.00;99.90;;;;;;5056457;28;20048;-71
2022/06/10 07:11:42;;;;;;;13.63;5.03;;;17.20;99.90;;;;;;5045224;28;20056;-72
2022/06/10 07:14:09;;;;;;;14.20;4.38;;;17.30;99.90;;;;;;5074975;28;20064;-70
2022/06/10 07:16:36;;;;;;;10.70;4.47;;;17.30;99.90;;;;;;5061352;28;20056;-71
2022/06/10 07:19:05;;;;;;;9.25;3.88;;;17.40;99.90;;;;;;5037806;28;20064;-72
2022/06/10 07:21:33;;;;;;;10.93;4.22;;;17.60;99.90;;;;;;5037132;28;20060;-72
2022/06/10 07:24:00;;;;;;;9.88;3.75;;;17.40;99.90;;;;;;5037011;28;20061;-72
2022/06/10 07:26:27;;;;;;;13.27;5.03;;;17.30;99.90;;;;;;5054887;28;20103;-71
2022/06/10 07:28:54;;;;;;;9.20;4.15;;;17.20;99.90;;;;;;5037557;28;20053;-72
2022/06/10 07:31:21;;;;;;;17.15;4.35;;;17.30;99.90;;;;;;5056403;28;20052;-71
2022/06/10 07:33:48;;;;;;;15.13;4.35;;;17.30;99.90;;;;;;5054463;28;20056;-72
2022/06/10 07:36:16;;;;;;;9.23;4.38;;;17.20;99.90;;;;;;5059519;28;20049;-71
2022/06/10 07:38:43;;;;;;;16.63;4.95;;;17.20;99.90;;;;;;5062183;28;20504;-71
2022/06/10 07:43:54;;;;;;;9.18;4.68;;;17.10;99.90;;;;;;5055743;28;20049;-72
2022/06/10 07:46:23;;;;;;;12.25;5.03;;;17.30;99.90;;;;;;5056996;28;20074;-72
2022/06/10 07:48:51;;;;;;;9.02;4.82;;;17.40;99.90;;;;;;5074242;28;20057;-72
2022/06/10 07:51:20;;;;;;;8.95;4.88;;;17.60;99.90;;;;;;5073753;28;20060;-72
2022/06/10 07:53:47;;;;;;;19.20;5.25;;;17.70;99.90;;;;;;5074540;28;20044;-72
2022/06/10 07:56:16;;;;;;;12.85;4.95;;;17.80;99.90;;;;;;5074157;28;20488;-72
2022/06/10 07:58:45;;;;;;;14.82;4.97;;;17.90;99.90;;;;;;5073367;28;20059;-72
2022/06/10 08:01:12;;;;;;;17.40;5.65;;;17.90;99.90;;;;;;5074507;28;20048;-73
2022/06/10 08:03:39;;;;;;;13.00;5.35;;;17.90;99.90;;;;;;5073777;28;20128;-73
2022/06/10 08:06:06;;;;;;;16.70;5.07;;;17.90;99.90;;;;;;5057369;28;20098;-71
2022/06/10 08:08:35;;;;;;;13.27;5.40;;;17.80;99.90;;;;;;5038221;28;20052;-72
2022/06/10 08:11:02;;;;;;;8.10;4.43;;;17.80;99.90;;;;;;5055764;28;20609;-72
2022/06/10 08:13:30;;;;;;;12.13;5.10;;;17.70;99.90;;;;;;5056357;28;20052;-73
2022/06/10 08:15:57;;;;;;;9.27;4.25;;;17.70;99.90;;;;;;5059318;28;20501;-72
2022/06/10 08:18:24;;;;;;;6.25;4.15;;;17.70;99.90;;;;;;5061691;28;20048;-73
2022/06/10 08:23:40;;;;;;;6.63;4.50;;;17.90;99.90;;;;;;5057229;28;20048;-73
2022/06/10 08:26:09;;;;;;;14.23;4.82;;;18.00;99.90;;;;;;5050368;28;20088;-72
2022/06/10 08:28:36;;;;;;;11.68;5.13;;;18.00;99.90;;;;;;5039037;28;20060;-73
2022/06/10 08:31:04;;;;;;;10.00;5.00;;;17.80;99.90;;;;;;5052898;28;20048;-72
2022/06/10 08:33:31;;;;;;;12.27;5.55;;;17.80;99.90;;;;;;5054755;28;20496;-73
2022/06/10 08:35:59;;;;;;;10.43;4.72;;;17.70;99.90;;;;;;5060259;28;20048;-72
2022/06/10 08:38:26;;;;;;;13.75;5.70;;;17.80;99.90;;;;;;5044101;28;20075;-73
2022/06/10 08:40:59;;;;;;;12.23;6.45;;;17.90;99.90;;;;;;5056694;28;20052;-73
2022/06/10 08:43:46;;;;;;;15.25;5.70;;;18.10;99.90;;;;;;5035859;28;20049;-73
2022/06/10 08:46:26;;;;;;;10.82;5.57;;;18.30;99.90;;;;;;5034924;28;20048;-73
2022/06/10 08:49:08;;;;;;;11.95;5.40;;;18.30;99.90;;;;;;5035543;28;20543;-72
2022/06/10 08:51:43;;;;;;;8.88;5.00;;;18.20;99.90;;;;;;5053594;28;20071;-73
2022/06/10 08:54:20;;;;;;;11.15;5.03;;;18.10;99.90;;;;;;5060330;28;20044;-73
2022/06/10 08:56:51;;;;;;;9.05;4.80;;;17.90;99.90;;;;;;5054613;28;20049;-73
2022/06/10 08:59:29;;;;;;;14.65;5.32;;;17.90;99.90;;;;;;5055523;28;20056;-73
2022/06/10 09:02:05;;;;;;;12.32;4.82;;;17.90;99.90;;;;;;5072786;28;20135;-72
2022/06/10 09:04:46;;;;;;;15.30;5.10;;;17.90;99.90;;;;;;5061058;28;20346;-73
2022/06/10 09:07:21;;;;;;;9.77;4.90;;;17.90;99.90;;;;;;5051219;28;20127;-73
2022/06/10 09:09:49;;;;;;;16.15;6.40;;;18.10;99.90;;;;;;5035468;28;20048;-72
2022/06/10 09:12:24;;;;;;;10.73;5.88;;;18.30;99.90;;;;;;5052997;28;20111;-73
2022/06/10 09:14:57;;;;;;;12.90;6.35;;;18.60;99.90;;;;;;5056207;28;20132;-73
2022/06/10 09:17:31;;;;;;;21.60;6.75;;;18.70;99.90;;;;;;5086387;28;20462;-73
2022/06/10 09:20:05;;;;;;;13.32;6.35;;;18.70;99.90;;;;;;5088763;28;20512;-73
2022/06/10 09:22:39;;;;;;;12.32;5.22;;;18.60;99.90;;;;;;5071891;28;20123;-73
2022/06/10 09:25:11;;;;;;;12.60;6.35;;;18.60;99.90;;;;;;5054957;28;20060;-72
2022/06/10 09:27:41;;;;;;;9.15;5.65;;;18.50;99.90;;;;;;5072104;28;20048;-71
2022/06/10 09:30:12;;;;;;;9.80;5.40;;;18.40;99.90;;;;;;5071901;28;20048;-72
2022/06/10 09:32:49;;;;;;;10.45;5.88;;;18.30;99.90;;;;;;5055203;28;20442;-70
2022/06/10 09:35:24;;;;;;;11.45;5.53;;;18.20;99.90;;;;;;5050404;28;20460;-72
2022/06/10 09:37:57;;;;;;;11.15;5.20;;;18.10;99.90;;;;;;5055926;28;20055;-72
2022/06/10 09:40:39;;;;;;;10.23;5.10;;;18.00;99.90;;;;;;5052141;28;20048;-73
2022/06/10 09:43:36;;;;;;;10.50;4.97;;;17.90;99.90;;;;;;5064447;28;20060;-72
2022/06/10 09:46:14;;;;;;;10.57;5.28;;;18.00;99.90;;;;;;5070371;28;20052;-73
2022/06/10 09:48:53;;;;;;;12.63;5.32;;;18.00;99.90;;;;;;5068612;28;20491;-73
2022/06/10 09:51:32;;;;;;;13.43;4.50;;;18.00;99.90;;;;;;5052161;28;20055;-72
2022/06/10 09:54:08;;;;;;;13.27;5.55;;;18.10;99.90;;;;;;5052151;28;20695;-72
2022/06/10 09:57:04;;;;;;;15.07;5.38;;;18.20;99.90;;;;;;5047213;28;20052;-72
2022/06/10 09:59:42;;;;;;;16.00;5.30;;;18.40;99.90;;;;;;5040940;28;20106;-71
2022/06/10 10:02:27;;;;;;;10.85;4.47;;;18.60;99.90;;;;;;5052634;28;20492;-72
2022/06/10 10:05:15;;;;;;;14.38;5.00;;;18.80;99.90;;;;;;5065927;28;20443;-75
2022/06/10 10:07:49;;;;;;;11.98;6.03;;;18.90;99.90;;;;;;5066716;28;20380;-70
2022/06/10 10:10:23;;;;;;;13.52;5.85;;;18.90;99.90;;;;;;5067455;28;20660;-71
2022/06/10 10:13:10;;;;;;;22.30;6.20;;;18.80;99.90;;;;;;5051916;28;20348;-71
2022/06/10 10:15:49;;;;;;;16.00;5.80;;;18.80;99.90;;;;;;5070083;28;20063;-70
2022/06/10 10:18:33;;;;;;;13.98;5.50;;;18.90;99.90;;;;;;5051926;28;20045;-71
2022/06/10 10:21:13;;;;;;;13.30;6.70;;;19.00;99.90;;;;;;5070459;28;20048;-71
2022/06/10 10:23:43;;;;;;;12.45;5.30;;;19.00;99.90;;;;;;5051315;28;20047;-72
2022/06/10 10:26:19;;;;;;;14.40;6.18;;;19.00;99.90;;;;;;5055613;28;20052;-71
2022/06/10 10:28:48;;;;;;;10.90;5.13;;;19.10;99.90;;;;;;5056973;28;20122;-72
2022/06/10 10:31:21;;;;;;;11.95;6.20;;;19.40;99.90;;;;;;5050516;28;20543;-73
2022/06/10 10:33:49;;;;;;;10.50;5.10;;;19.60;99.90;;;;;;5055675;28;20419;-72
2022/06/10 10:36:24;;;;;;;11.45;6.03;;;19.70;99.90;;;;;;5072201;28;20051;-73
2022/06/10 10:38:52;;;;;;;14.93;6.15;;;19.80;99.90;;;;;;5050204;28;20474;-73
2022/06/10 10:41:38;;;;;;;15.25;6.25;;;19.90;99.90;;;;;;5070984;28;20389;-72
2022/06/10 10:44:21;;;;;;;13.23;5.47;;;19.80;99.90;;;;;;5069061;28;20068;-71
2022/06/10 10:47:01;;;;;;;14.63;5.93;;;19.80;99.90;;;;;;5053277;28;20090;-72
2022/06/10 10:49:29;;;;;;;;;;;19.60;99.90;;;;;;5052590;28;20515;-72
2022/06/10 10:51:57;;;;;;;12.45;6.15;;;19.50;99.90;;;;;;5052463;28;19921;-72
2022/06/10 10:54:28;;;;;;;11.18;5.70;;;19.40;99.90;;;;;;5056196;28;20114;-71
2022/06/10 10:56:56;;;;;;;16.75;6.22;;;19.40;99.90;;;;;;5070353;28;20048;-71
2022/06/10 10:59:45;;;;;;;10.80;5.18;;;19.30;99.90;;;;;;5068797;28;20106;-71
2022/06/10 11:02:36;;;;;;;12.88;5.70;;;19.30;99.90;;;;;;5056783;28;20099;-71
2022/06/10 11:05:20;;;;;;;;;;;19.40;99.90;;;;;;5054182;28;20052;-71
2022/06/10 11:07:47;;;;;;;11.00;5.20;;;19.30;99.90;;;;;;5036131;28;19924;-72
2022/06/10 11:10:20;;;;;;;7.80;5.03;;;19.40;99.90;;;;;;5052086;28;20045;-72
2022/06/10 11:12:48;;;;;;;11.07;5.40;;;19.50;99.90;;;;;;5057757;28;20067;-71
2022/06/10 11:15:27;;;;;;;9.80;5.13;;;19.70;99.90;;;;;;5056791;28;20089;-72
2022/06/10 11:17:56;;;;;;;10.00;5.18;;;19.80;99.90;;;;;;5074321;28;20412;-71
2022/06/10 11:20:27;;;;;;;14.38;5.78;;;19.90;99.90;;;;;;5036748;28;20520;-70
2022/06/10 11:23:11;;;;;;;10.65;5.75;;;19.80;99.90;;;;;;5037300;28;20041;-72
2022/06/10 11:25:39;;;;;;;10.63;5.43;;;19.90;99.90;;;;;;5054977;28;20056;-73
2022/06/10 11:28:18;;;;;;;9.48;5.15;;;19.90;99.90;;;;;;5038944;28;20135;-71
2022/06/10 11:30:49;;;;;;;10.82;4.95;;;19.90;99.90;;;;;;5057384;28;20412;-71
2022/06/10 11:33:32;;;;;;;10.68;4.75;;;20.00;99.90;;;;;;5074811;28;20057;-72
2022/06/10 11:36:08;;;;;;;11.38;4.47;;;20.60;99.90;;;;;;5057607;28;20053;-72
2022/06/10 11:38:39;;;;;;;8.70;4.13;;;21.30;99.90;;;;;;5037101;28;20140;-72
2022/06/10 11:41:25;;;;;;;7.97;4.40;;;21.60;99.90;;;;;;5054317;28;20057;-72
2022/06/10 11:43:58;;;;;;;8.55;4.13;;;21.80;99.90;;;;;;5035969;28;20056;-72
2022/06/10 11:46:30;;;;;;;9.43;4.22;;;21.60;99.90;;;;;;5036583;28;20056;-71
2022/06/10 11:49:06;;;;;;;9.57;4.88;;;21.40;99.90;;;;;;5037004;28;20080;-71
2022/06/10 11:51:38;;;;;;;7.90;4.45;;;21.20;99.90;;;;;;5035568;28;20142;-72
2022/06/10 11:54:12;;;;;;;7.22;4.28;;;21.20;99.90;;;;;;5036817;28;20064;-72
2022/06/10 11:59:55;;;;;;;12.10;4.63;;;21.20;99.90;;;;;;5054352;28;20115;-72
2022/06/10 12:02:30;;;;;;;10.57;4.97;;;21.40;99.90;;;;;;5054265;28;20126;-72
2022/06/10 12:05:17;;;;;;;10.07;3.83;;;22.10;99.90;;;;;;5053875;28;20060;-72
2022/06/10 12:07:49;;;;;;;9.27;4.22;;;22.70;99.90;;;;;;5072243;28;20528;-71
2022/06/10 12:10:20;;;;;;;7.93;3.80;;;23.40;99.90;;;;;;5073217;28;20525;-72
2022/06/10 12:12:49;;;;;;;9.80;4.25;;;23.50;99.90;;;;;;5056108;28;20048;-72
2022/06/10 12:15:22;;;;;;;9.23;4.68;;;23.30;99.90;;;;;;5043894;28;20080;-72
2022/06/10 12:17:51;;;;;;;17.65;4.55;;;23.10;99.90;;;;;;5053369;28;20091;-72
2022/06/10 12:20:29;;;;;;;13.73;5.83;;;22.80;99.90;;;;;;5036555;28;20055;-72
2022/06/10 12:22:57;;;;;;;12.63;4.80;;;22.50;99.90;;;;;;5070906;28;20360;-72
2022/06/10 12:25:29;;;;;;;7.05;4.53;;;22.20;99.90;;;;;;5049977;28;20094;-71
2022/06/10 12:28:01;;;;;;;13.02;4.60;;;21.90;99.90;;;;;;5015403;28;20052;-71
2022/06/10 12:30:35;;;;;;;12.93;5.72;;;21.90;99.90;;;;;;5043200;28;20048;-72
2022/06/10 12:33:10;;;;;;;9.23;5.07;;;21.80;99.90;;;;;;5035402;28;20056;-71
2022/06/10 12:35:42;;;;;;;10.15;5.38;;;21.60;99.90;;;;;;5053343;28;20044;-71
2022/06/10 12:38:15;;;;;;;13.65;5.20;;;21.40;99.90;;;;;;5054121;28;20504;-71
2022/06/10 12:40:47;;;;;;;14.50;5.07;;;21.40;99.90;;;;;;5055571;28;20048;-71
2022/06/10 12:43:19;;;;;;;13.48;5.82;;;21.30;99.90;;;;;;5071895;28;20048;-71
2022/06/10 12:45:48;;;;;;;10.18;5.55;;;21.20;99.90;;;;;;5052439;28;20483;-71
2022/06/10 12:48:17;;;;;;;10.57;4.63;;;21.20;99.90;;;;;;5067858;28;20102;-72
2022/06/10 12:50:58;;;;;;;10.20;5.80;;;21.40;99.90;;;;;;5052979;28;20060;-73
2022/06/10 12:53:44;;;;;;;10.90;4.80;;;21.50;99.90;;;;;;5034715;28;20052;-71
2022/06/10 12:56:20;;;;;;;10.82;5.78;;;21.60;99.90;;;;;;5062097;28;20080;-71
2022/06/10 12:58:52;;;;;;;13.25;5.35;;;21.60;99.90;;;;;;5071913;28;20048;-71
2022/06/10 13:01:22;;;;;;;9.82;4.85;;;21.50;99.90;;;;;;5055147;28;20565;-73
2022/06/10 13:03:50;;;;;;;12.90;4.72;;;21.50;99.90;;;;;;5069749;28;20040;-71
2022/06/10 13:06:32;;;;;;;10.63;5.00;;;21.50;99.90;;;;;;5054969;28;20443;-72
2022/06/10 13:09:21;;;;;;;7.10;4.13;;;21.40;99.90;;;;;;5054856;28;20098;-72
2022/06/10 13:11:50;;;;;;;11.13;4.75;;;21.50;99.90;;;;;;5054932;28;20451;-72
2022/06/10 13:14:23;;;;;;;11.32;4.47;;;21.50;99.90;;;;;;5054100;28;20110;-70
2022/06/10 13:17:19;;;;;;;9.18;4.32;;;21.60;99.90;;;;;;5073082;28;20056;-71
2022/06/10 13:20:19;;;;;;;8.75;4.47;;;21.70;99.90;;;;;;5073166;28;20412;-71